Time;durP1;ratioP1;P1;durP2;ratioP2;P2;SDS_P1;SDS_P2;PMS_P1;PMS_P2;Temp;Humidity;BMP_temperature;BMP_pressure;BME280_temperature;BME280_humidity;BME280_pressure;Samples;Min_cycle;Max_cycle;Signal;HPM_P1;HPM_P2
2023/05/19 00:00:23;;;;;;;4.87;2.10;;;;;;;7.95;93.61;102095.09;4972847;28;20050;-79
2023/05/19 00:04:28;;;;;;;4.80;2.03;;;;;;;7.84;94.98;102084.44;4977042;28;20071;-79
2023/05/19 00:07:36;;;;;;;3.57;1.60;;;;;;;7.84;95.63;102086.19;4967649;28;20038;-79
2023/05/19 00:11:13;;;;;;;5.33;1.90;;;;;;;7.74;94.69;102082.56;4970844;28;20114;-79
2023/05/19 00:15:20;;;;;;;4.28;1.83;;;;;;;7.67;95.99;102093.84;4952735;28;20050;-79
2023/05/19 00:18:33;;;;;;;5.20;1.70;;;;;;;7.62;95.86;102085.00;4967189;28;20106;-79
2023/05/19 00:21:11;;;;;;;5.13;1.70;;;;;;;7.53;96.62;102085.75;4937649;28;20067;-78
2023/05/19 00:24:20;;;;;;;4.23;2.07;;;;;;;7.50;96.19;102084.81;4976632;28;20056;-78
2023/05/19 00:27:31;;;;;;;7.87;2.87;;;;;;;7.40;95.76;102088.16;4972996;28;20066;-78
2023/05/19 00:30:28;;;;;;;5.23;2.43;;;;;;;7.41;96.74;102079.44;4969929;28;20089;-79
2023/05/19 00:33:22;;;;;;;5.07;1.77;;;;;;;7.31;97.20;102084.56;4949883;28;20065;-79
2023/05/19 00:35:49;;;;;;;14.13;3.60;;;;;;;7.29;96.27;102080.97;4950388;28;20521;-79
2023/05/19 00:38:16;;;;;;;3.93;2.33;;;;;;;7.19;98.99;102076.44;4953872;28;20042;-79
2023/05/19 00:40:44;;;;;;;4.63;2.33;;;;;;;7.22;98.75;102080.88;4953102;28;20046;-79
2023/05/19 00:43:11;;;;;;;5.03;2.10;;;;;;;7.07;99.19;102081.53;4939150;28;20050;-79
2023/05/19 00:45:38;;;;;;;5.03;1.93;;;;;;;6.97;100.00;102085.72;4946568;28;20043;-78
2023/05/19 00:48:04;;;;;;;5.00;2.47;;;;;;;6.85;100.00;102079.38;4921990;28;20057;-79
2023/05/19 00:50:31;;;;;;;4.17;1.80;;;;;;;6.82;100.00;102076.72;4972130;28;20129;-78
2023/05/19 00:52:59;;;;;;;5.43;2.10;;;;;;;6.80;100.00;102079.28;4971964;28;20069;-79
2023/05/19 00:55:27;;;;;;;4.67;2.03;;;;;;;6.72;100.00;102086.13;5010044;28;20046;-79
2023/05/19 00:57:57;;;;;;;3.43;1.87;;;;;;;6.66;100.00;102086.06;5026234;28;20088;-79
2023/05/19 01:00:24;;;;;;;3.97;1.77;;;;;;;6.59;100.00;102087.66;4974880;28;20145;-79
2023/05/19 01:02:51;;;;;;;3.80;2.00;;;;;;;6.52;100.00;102080.53;5008082;28;20230;-79
2023/05/19 01:05:18;;;;;;;3.87;2.00;;;;;;;6.52;100.00;102084.91;5007706;28;20038;-79
2023/05/19 01:07:45;;;;;;;6.60;1.93;;;;;;;6.38;100.00;102077.63;5000770;28;20113;-79
2023/05/19 01:10:12;;;;;;;5.40;2.33;;;;;;;6.23;100.00;102074.72;4986403;28;20097;-78
2023/05/19 01:12:39;;;;;;;3.27;1.87;;;;;;;6.32;100.00;102085.41;5003201;28;20045;-78
2023/05/19 01:15:06;;;;;;;6.17;2.10;;;;;;;6.38;100.00;102079.38;4987077;28;20060;-79
2023/05/19 01:18:13;;;;;;;3.10;1.83;;;;;;;6.27;100.00;102083.53;5023079;28;20077;-80
2023/05/19 01:20:51;;;;;;;4.63;2.10;;;;;;;6.21;100.00;102077.31;4981953;28;20038;-78
2023/05/19 01:23:30;;;;;;;2.83;1.90;;;;;;;6.24;100.00;102080.88;4987926;28;20050;-79
2023/05/19 01:26:06;;;;;;;4.00;2.00;;;;;;;6.41;100.00;102084.69;4990993;28;20060;-80
2023/05/19 01:28:57;;;;;;;6.20;2.20;;;;;;;6.37;100.00;102082.84;5009770;28;20057;-78
2023/05/19 01:31:24;;;;;;;5.30;2.40;;;;;;;6.22;100.00;102093.94;4991417;28;20061;-78
2023/05/19 01:33:52;;;;;;;3.23;1.80;;;;;;;6.19;100.00;102093.88;5021855;28;20124;-78
2023/05/19 01:36:21;;;;;;;5.00;2.03;;;;;;;6.26;100.00;102094.91;5007997;28;20033;-79
2023/05/19 01:38:51;;;;;;;5.70;2.30;;;;;;;6.27;100.00;102099.28;5002303;28;20038;-78
2023/05/19 01:41:20;;;;;;;5.50;2.57;;;;;;;6.24;100.00;102089.63;4989410;28;20034;-78
2023/05/19 01:43:47;;;;;;;5.87;2.80;;;;;;;6.32;100.00;102095.91;5010070;28;20068;-79
2023/05/19 01:46:15;;;;;;;3.93;1.97;;;;;;;6.42;100.00;102091.72;5005804;28;20427;-78
2023/05/19 01:48:43;;;;;;;5.07;2.00;;;;;;;6.40;100.00;102096.06;5005865;28;20057;-80
2023/05/19 01:51:10;;;;;;;6.03;2.33;;;;;;;6.45;100.00;102094.38;5007281;28;20046;-81
2023/05/19 01:53:37;;;;;;;5.70;1.90;;;;;;;6.60;100.00;102084.19;5021887;28;20141;-79
2023/05/19 01:56:04;;;;;;;6.30;1.97;;;;;;;6.42;100.00;102089.09;5021257;28;20049;-79
2023/05/19 01:58:52;;;;;;;3.23;2.47;;;;;;;6.46;100.00;102089.16;5006149;28;20068;-78
2023/05/19 02:01:40;;;;;;;3.80;2.73;;;;;;;6.43;100.00;102085.59;4975543;28;20049;-80
2023/05/19 02:04:13;;;;;;;4.97;2.10;;;;;;;6.42;100.00;102087.34;4980971;28;20050;-79
2023/05/19 02:07:10;;;;;;;5.87;2.27;;;;;;;6.52;100.00;102087.53;4986752;28;20053;-80
2023/05/19 02:09:39;;;;;;;4.50;2.30;;;;;;;6.42;100.00;102089.09;4987339;28;20034;-79
2023/05/19 02:12:26;;;;;;;5.80;2.27;;;;;;;6.51;100.00;102088.38;4993351;28;20038;-78
2023/05/19 02:15:15;;;;;;;4.20;1.90;;;;;;;6.47;100.00;102090.97;5001133;28;20113;-78
2023/05/19 02:17:47;;;;;;;5.60;2.20;;;;;;;6.53;100.00;102087.53;5004890;28;20183;-79
2023/05/19 02:20:14;;;;;;;4.77;2.20;;;;;;;6.55;100.00;102093.69;4982072;28;20107;-79
2023/05/19 02:22:41;;;;;;;3.83;2.07;;;;;;;6.59;100.00;102085.03;5002267;28;20120;-79
2023/05/19 02:25:08;;;;;;;6.67;2.70;;;;;;;6.52;100.00;102082.28;4989181;28;20042;-79
2023/05/19 02:27:36;;;;;;;7.63;2.60;;;;;;;6.51;100.00;102088.38;4997787;28;20038;-79
2023/05/19 02:30:04;;;;;;;5.50;2.20;;;;;;;6.57;100.00;102085.88;4984815;28;20052;-78
2023/05/19 02:32:31;;;;;;;4.07;2.07;;;;;;;6.58;100.00;102085.91;5020912;28;20040;-80
2023/05/19 02:34:58;;;;;;;5.57;2.50;;;;;;;6.61;100.00;102077.19;5008527;28;20065;-80
2023/05/19 02:37:27;;;;;;;6.50;2.07;;;;;;;6.60;100.00;102078.06;5021137;28;20034;-78
2023/05/19 02:39:54;;;;;;;4.37;2.77;;;;;;;6.62;100.00;102071.97;4989001;28;20030;-78
2023/05/19 02:42:21;;;;;;;6.77;2.73;;;;;;;6.69;100.00;102070.34;4978728;28;20720;-80
2023/05/19 02:44:48;;;;;;;4.83;2.30;;;;;;;6.64;100.00;102074.59;5006487;28;20133;-78
2023/05/19 02:47:14;;;;;;;6.13;2.60;;;;;;;6.60;100.00;102076.31;4984456;28;20041;-79
2023/05/19 02:49:42;;;;;;;3.53;2.20;;;;;;;6.63;100.00;102076.34;5012570;28;20033;-79
2023/05/19 02:52:10;;;;;;;4.67;2.67;;;;;;;6.60;100.00;102084.19;5019997;28;20037;-80
2023/05/19 02:54:37;;;;;;;5.13;2.37;;;;;;;6.65;100.00;102076.41;5001417;28;20133;-79
2023/05/19 02:57:04;;;;;;;7.70;1.93;;;;;;;6.50;100.00;102074.38;4987820;28;20579;-78
2023/05/19 02:59:31;;;;;;;4.87;2.57;;;;;;;6.52;100.00;102075.28;5003270;28;20066;-78
2023/05/19 03:02:01;;;;;;;5.73;2.40;;;;;;;6.51;100.00;102075.25;5005782;28;20487;-80
2023/05/19 03:04:28;;;;;;;5.77;2.10;;;;;;;6.46;100.00;102075.16;4996110;28;20044;-79
2023/05/19 03:06:56;;;;;;;4.40;2.43;;;;;;;6.46;100.00;102072.53;5004030;28;20125;-80
2023/05/19 03:09:23;;;;;;;5.17;3.23;;;;;;;6.37;100.00;102074.97;5016543;28;20046;-79
2023/05/19 03:11:49;;;;;;;6.23;2.73;;;;;;;6.30;100.00;102084.47;4984971;28;20046;-80
2023/05/19 03:14:17;;;;;;;4.23;2.40;;;;;;;6.26;100.00;102066.03;4991001;28;20037;-78
2023/05/19 03:16:44;;;;;;;4.77;2.10;;;;;;;6.24;100.00;102081.75;4993364;28;20557;-79
2023/05/19 03:19:11;;;;;;;3.13;2.03;;;;;;;6.18;100.00;102072.00;5004627;28;20042;-79
2023/05/19 03:21:38;;;;;;;2.83;2.27;;;;;;;6.01;100.00;102072.50;5003674;28;20401;-81
2023/05/19 03:24:05;;;;;;;8.00;3.30;;;;;;;6.08;100.00;102075.31;5006839;28;20054;-80
2023/05/19 03:26:32;;;;;;;4.90;2.00;;;;;;;6.06;100.00;102070.88;4996535;28;20042;-82
2023/05/19 03:28:58;;;;;;;7.20;3.43;;;;;;;5.96;100.00;102076.78;5009081;28;20049;-81
2023/05/19 03:31:25;;;;;;;8.17;2.87;;;;;;;5.83;100.00;102070.34;5005802;28;20061;-82
2023/05/19 03:33:52;;;;;;;6.93;2.30;;;;;;;5.88;100.00;102079.19;5023482;28;20069;-81
2023/05/19 03:36:20;;;;;;;4.67;2.60;;;;;;;5.86;100.00;102084.41;5003039;28;20096;-80
2023/05/19 03:38:47;;;;;;;6.20;2.73;;;;;;;5.83;100.00;102072.97;5019429;28;20042;-83
2023/05/19 03:41:14;;;;;;;5.40;2.40;;;;;;;5.82;100.00;102079.97;4988931;28;20125;-83
2023/05/19 03:43:41;;;;;;;4.47;2.00;;;;;;;5.84;100.00;102080.00;5004101;28;20038;-80
2023/05/19 03:46:07;;;;;;;4.47;2.20;;;;;;;5.79;100.00;102079.00;5002864;28;20095;-81
2023/05/19 03:48:34;;;;;;;4.47;2.23;;;;;;;5.68;100.00;102086.63;5006596;28;20042;-81
2023/05/19 03:51:01;;;;;;;4.17;2.43;;;;;;;5.67;100.00;102086.59;4988428;28;20077;-80
2023/05/19 03:53:29;;;;;;;5.00;3.23;;;;;;;5.73;100.00;102095.50;5000877;28;20041;-82
2023/05/19 03:55:55;;;;;;;4.13;2.47;;;;;;;5.78;100.00;102095.59;4991614;28;20368;-80
2023/05/19 03:58:22;;;;;;;4.93;2.63;;;;;;;5.71;100.00;102096.28;5000545;28;20066;-80
2023/05/19 04:00:49;;;;;;;11.23;2.30;;;;;;;5.65;100.00;102097.06;4992859;28;20535;-81
2023/05/19 04:03:16;;;;;;;7.70;3.17;;;;;;;5.64;100.00;102085.69;5003149;28;20117;-81
2023/05/19 04:05:43;;;;;;;7.30;2.60;;;;;;;5.71;100.00;102097.19;5007798;28;20056;-80
2023/05/19 04:08:10;;;;;;;4.27;2.37;;;;;;;5.82;100.00;102097.44;5005907;28;20042;-79
2023/05/19 04:10:36;;;;;;;6.83;2.53;;;;;;;5.74;100.00;102091.13;4998006;28;20034;-82
2023/05/19 04:13:03;;;;;;;5.90;2.33;;;;;;;5.88;100.00;102087.06;5003747;28;20676;-81
2023/05/19 04:15:31;;;;;;;5.67;2.37;;;;;;;5.90;100.00;102088.91;4987565;28;20136;-79
2023/05/19 04:17:58;;;;;;;3.07;2.23;;;;;;;6.00;100.00;102086.50;4991077;28;20037;-82
2023/05/19 04:20:25;;;;;;;8.47;2.97;;;;;;;6.06;100.00;102099.75;5018021;28;20084;-81
2023/05/19 04:22:51;;;;;;;4.50;2.40;;;;;;;6.15;100.00;102097.31;5019878;28;20061;-79
2023/05/19 04:25:19;;;;;;;5.77;3.00;;;;;;;6.18;100.00;102098.25;4991250;28;20468;-80
2023/05/19 04:27:47;;;;;;;4.50;2.30;;;;;;;6.26;100.00;102100.16;5004551;28;20041;-80
2023/05/19 04:30:20;;;;;;;4.70;3.17;;;;;;;6.33;100.00;102104.66;5001069;28;20136;-81
2023/05/19 04:32:50;;;;;;;4.45;2.20;;;;;;;6.43;100.00;102102.25;5020072;28;20615;-81
2023/05/19 04:35:18;;;;;;;7.17;2.60;;;;;;;6.60;100.00;102097.31;5006193;28;20109;-81
2023/05/19 04:37:47;;;;;;;5.53;2.50;;;;;;;6.75;100.00;102102.84;5007865;28;20438;-81
2023/05/19 04:40:14;;;;;;;5.53;2.70;;;;;;;6.74;100.00;102098.47;4992646;28;20658;-80
2023/05/19 04:42:41;;;;;;;6.47;3.23;;;;;;;6.89;100.00;102089.94;4973794;28;20522;-81
2023/05/19 04:45:09;;;;;;;10.43;2.90;;;;;;;6.92;100.00;102099.66;5003647;28;20050;-80
2023/05/19 04:47:36;;;;;;;15.23;4.47;;;;;;;7.01;100.00;102089.28;5006177;28;20036;-78
2023/05/19 04:50:04;;;;;;;5.33;2.70;;;;;;;7.14;100.00;102093.00;4994254;28;20045;-81
2023/05/19 04:52:30;;;;;;;6.33;2.70;;;;;;;7.16;100.00;102089.56;5061871;22;20039;-80
2023/05/19 04:54:57;;;;;;;4.67;2.40;;;;;;;7.29;100.00;102090.63;4979821;28;20398;-81
2023/05/19 04:57:24;;;;;;;5.50;2.80;;;;;;;7.44;100.00;102084.72;4975853;28;20038;-80
2023/05/19 04:59:52;;;;;;;4.57;2.57;;;;;;;7.57;100.00;102084.94;4974414;28;20126;-81
2023/05/19 05:02:18;;;;;;;5.20;2.60;;;;;;;7.79;100.00;102078.22;4953402;28;20043;-79
2023/05/19 05:04:45;;;;;;;6.17;2.70;;;;;;;7.79;100.00;102083.47;4994321;28;20048;-80
2023/05/19 05:07:12;;;;;;;6.33;2.47;;;;;;;8.00;100.00;102087.28;4970464;28;20137;-79
2023/05/19 05:09:39;;;;;;;4.17;2.80;;;;;;;7.98;100.00;102091.59;5007992;28;20130;-80
2023/05/19 05:12:09;;;;;;;6.37;2.97;;;;;;;8.13;100.00;102087.44;4975251;28;20039;-79
2023/05/19 05:14:36;;;;;;;5.97;2.23;;;;;;;8.13;100.00;102086.53;4987424;28;20096;-79
2023/05/19 05:17:03;;;;;;;4.17;2.27;;;;;;;8.30;100.00;102086.75;4963010;28;20034;-78
2023/05/19 05:19:30;;;;;;;10.83;2.80;;;;;;;8.41;100.00;102086.06;4977681;28;20056;-80
2023/05/19 05:21:57;;;;;;;6.07;2.83;;;;;;;8.57;100.00;102089.72;4976538;28;20042;-80
2023/05/19 05:24:24;;;;;;;6.03;2.33;;;;;;;8.65;100.00;102092.44;4974324;28;20030;-79
2023/05/19 05:26:50;;;;;;;4.43;2.33;;;;;;;8.76;100.00;102082.03;4998679;28;20477;-78
2023/05/19 05:29:18;;;;;;;6.13;2.67;;;;;;;8.96;100.00;102083.97;4994449;28;20106;-79
2023/05/19 05:31:45;;;;;;;5.43;2.77;;;;;;;9.15;97.81;102085.00;4975565;28;20045;-78
2023/05/19 05:34:12;;;;;;;5.53;2.33;;;;;;;9.38;98.44;102076.38;4993831;28;20035;-79
2023/05/19 05:36:38;;;;;;;4.30;2.10;;;;;;;9.72;93.40;102072.19;4969242;28;20049;-78
2023/05/19 05:39:05;;;;;;;4.07;2.17;;;;;;;10.15;91.21;102082.09;4993441;28;20042;-79
2023/05/19 05:41:34;;;;;;;4.28;2.17;;;;;;;10.40;86.93;102074.28;4992366;28;20473;-78
2023/05/19 05:44:01;;;;;;;3.08;2.10;;;;;;;10.50;82.36;102073.41;4976459;28;20026;-78
2023/05/19 05:46:28;;;;;;;4.80;2.20;;;;;;;10.48;81.71;102076.94;4962894;28;20038;-79
2023/05/19 05:48:55;;;;;;;3.90;1.90;;;;;;;10.40;84.01;102075.16;4977543;28;20619;-79
2023/05/19 05:51:22;;;;;;;4.80;2.88;;;;;;;10.23;82.86;102078.63;4981768;28;21656;-79
2023/05/19 05:53:51;;;;;;;4.35;2.00;;;;;;;10.62;84.90;102084.03;4972793;28;20038;-80
2023/05/19 05:56:20;;;;;;;7.40;2.13;;;;;;;11.28;78.45;102084.09;4973609;28;20133;-79
2023/05/19 05:58:48;;;;;;;6.05;2.08;;;;;;;12.26;68.68;102078.53;4972553;28;20067;-80
2023/05/19 06:01:16;;;;;;;4.28;2.10;;;;;;;13.15;66.22;102078.84;4990881;28;20034;-79
2023/05/19 06:03:44;;;;;;;3.42;1.80;;;;;;;13.09;62.57;102076.25;4981353;28;20052;-79
2023/05/19 06:06:12;;;;;;;4.75;2.00;;;;;;;14.31;61.75;102072.31;4996281;28;20041;-80
2023/05/19 06:08:39;;;;;;;4.50;1.80;;;;;;;14.90;57.20;102067.91;4973727;28;20053;-77
2023/05/19 06:11:08;;;;;;;2.42;1.55;;;;;;;14.84;57.99;102066.22;4985377;28;20070;-80
2023/05/19 06:13:35;;;;;;;4.03;2.17;;;;;;;14.79;55.55;102072.50;4974890;28;20042;-78
2023/05/19 06:16:06;;;;;;;5.25;1.73;;;;;;;14.82;56.94;102075.16;4983062;28;20045;-78
2023/05/19 06:18:44;;;;;;;3.42;2.63;;;;;;;14.83;57.72;102084.88;4959733;28;20041;-78
2023/05/19 06:21:26;;;;;;;3.88;2.05;;;;;;;14.99;57.05;102086.41;4963620;28;20048;-80
2023/05/19 06:23:53;;;;;;;3.85;2.00;;;;;;;14.76;58.89;102080.56;4994709;28;20582;-78
2023/05/19 06:26:23;;;;;;;2.55;1.88;;;;;;;14.78;55.28;102084.06;4972988;28;20038;-79
2023/05/19 06:28:51;;;;;;;3.60;1.70;;;;;;;14.85;54.92;102083.94;4963106;28;20137;-79
2023/05/19 06:31:19;;;;;;;3.60;1.73;;;;;;;14.86;56.59;102080.38;4960165;28;20050;-78
2023/05/19 06:33:57;;;;;;;2.28;1.63;;;;;;;15.07;56.70;102083.63;4961875;28;20065;-78
2023/05/19 06:36:40;;;;;;;4.63;1.80;;;;;;;15.05;56.33;102078.31;4988152;28;20053;-80
2023/05/19 06:39:07;;;;;;;5.20;2.03;;;;;;;14.97;56.18;102084.69;4974129;28;20057;-78
2023/05/19 06:41:36;;;;;;;6.30;2.08;;;;;;;14.78;56.82;102076.97;4958192;28;20053;-78
2023/05/19 06:44:07;;;;;;;4.07;2.10;;;;;;;14.28;57.09;102083.84;4978106;28;20049;-79
2023/05/19 06:46:35;;;;;;;3.05;1.50;;;;;;;14.24;58.51;102079.47;4976987;28;20042;-78
2023/05/19 06:49:03;;;;;;;3.80;1.85;;;;;;;14.29;60.00;102079.41;4956767;28;20105;-78
2023/05/19 06:51:44;;;;;;;3.15;1.67;;;;;;;14.39;62.95;102077.53;4998265;28;20038;-79
2023/05/19 06:54:21;;;;;;;3.75;1.92;;;;;;;14.29;60.98;102077.66;4960845;28;20391;-79
2023/05/19 07:12:49;;;;;;;4.28;1.95;;;;;;;15.21;56.87;102084.25;4985159;28;20490;-80
2023/05/19 07:15:16;;;;;;;3.20;1.60;;;;;;;15.09;56.12;102081.81;4984522;28;20069;-79
2023/05/19 07:17:43;;;;;;;4.18;1.67;;;;;;;15.46;58.24;102069.59;4986154;28;20066;-79
2023/05/19 07:20:10;;;;;;;3.90;1.60;;;;;;;15.85;56.42;102079.56;4984411;28;20039;-79
2023/05/19 07:22:38;;;;;;;2.88;1.52;;;;;;;16.01;55.29;102086.34;4984372;28;20078;-79
2023/05/19 07:25:08;;;;;;;4.00;2.00;;;;;;;16.14;55.28;102070.97;4973300;28;20034;-80
2023/05/19 07:27:35;;;;;;;3.70;1.75;;;;;;;16.36;53.21;102074.06;4991055;28;20141;-81
2023/05/19 07:30:02;;;;;;;4.97;2.05;;;;;;;16.57;54.05;102061.13;4959075;28;20078;-78
2023/05/19 07:32:29;;;;;;;4.03;1.65;;;;;;;16.69;52.83;102069.78;4986441;28;20077;-80
2023/05/19 07:34:56;;;;;;;4.82;1.70;;;;;;;16.56;52.15;102064.72;4980431;28;20038;-81
2023/05/19 07:37:25;;;;;;;2.58;1.80;;;;;;;16.56;51.83;102063.81;4984918;28;20117;-81
2023/05/19 07:39:53;;;;;;;1.73;1.30;;;;;;;16.46;52.69;102064.94;4957134;28;20050;-80
2023/05/19 07:42:25;;;;;;;3.88;1.95;;;;;;;16.53;53.25;102053.22;4978322;28;20034;-79
2023/05/19 07:45:07;;;;;;;3.35;1.70;;;;;;;16.84;53.56;102059.63;4999611;28;20058;-79
2023/05/19 07:47:39;;;;;;;3.35;1.95;;;;;;;17.14;52.59;102054.44;4998048;28;20034;-80
2023/05/19 07:50:49;;;;;;;4.18;1.80;;;;;;;17.49;50.90;102056.19;5000598;28;20035;-80
2023/05/19 07:53:30;;;;;;;4.90;1.67;;;;;;;17.75;52.87;102059.97;4995489;28;20046;-79
2023/05/19 07:56:19;;;;;;;3.20;1.70;;;;;;;17.75;51.23;102050.16;4984329;28;20054;-79
2023/05/19 07:59:06;;;;;;;4.70;1.55;;;;;;;17.93;51.27;102051.44;4977702;28;20069;-79
2023/05/19 08:01:34;;;;;;;1.90;1.20;;;;;;;18.09;50.23;102052.75;4968824;28;20124;-80
2023/05/19 08:04:01;;;;;;;94.60;15.45;;;;;;;18.32;49.05;102052.03;4976674;28;20030;-80
2023/05/19 08:06:28;;;;;;;3.72;1.75;;;;;;;18.44;49.47;102040.09;5005440;28;20103;-81
2023/05/19 08:08:55;;;;;;;3.97;1.70;;;;;;;18.38;48.09;102049.19;4998533;28;20038;-80
2023/05/19 08:11:25;;;;;;;3.33;1.80;;;;;;;18.47;49.35;102046.22;4980448;28;20209;-80
2023/05/19 08:13:52;;;;;;;3.13;1.63;;;;;;;18.51;46.43;102052.38;4990222;28;20050;-80
2023/05/19 08:16:18;;;;;;;4.40;1.60;;;;;;;18.26;45.80;102049.56;4996242;28;20106;-80
2023/05/19 08:18:53;;;;;;;3.05;1.60;;;;;;;18.34;47.13;102055.56;4968070;28;20045;-79
2023/05/19 08:21:36;;;;;;;2.55;1.67;;;;;;;18.24;46.34;102051.38;5002746;28;20486;-80
2023/05/19 08:24:03;;;;;;;2.88;1.80;;;;;;;18.21;48.73;102048.81;4958496;28;20038;-81
2023/05/19 08:26:29;;;;;;;3.22;1.50;;;;;;;18.59;47.03;102057.47;4988466;28;20034;-80
2023/05/19 08:28:56;;;;;;;1.92;1.10;;;;;;;18.46;45.60;102044.47;4976330;28;20104;-81
2023/05/19 08:31:23;;;;;;;2.63;1.50;;;;;;;18.60;45.98;102052.06;4957496;28;20047;-80
2023/05/19 08:33:51;;;;;;;3.70;1.83;;;;;;;18.57;45.46;102046.78;4983531;28;20034;-80
2023/05/19 08:36:18;;;;;;;2.53;1.45;;;;;;;18.71;46.17;102046.41;4966245;28;20077;-80
2023/05/19 08:38:44;;;;;;;3.35;1.42;;;;;;;18.92;46.00;102055.50;4958705;28;20077;-81
2023/05/19 08:41:12;;;;;;;2.78;1.33;;;;;;;18.69;43.45;102050.94;4975091;28;20118;-80
2023/05/19 08:43:44;;;;;;;1.65;1.10;;;;;;;18.97;43.38;102051.78;4980548;28;20046;-81
2023/05/19 08:46:43;;;;;;;2.00;1.13;;;;;;;19.09;42.37;102050.50;4978447;28;20046;-81
2023/05/19 08:49:12;;;;;;;1.95;1.25;;;;;;;19.04;42.22;102049.78;4963062;28;20062;-80
2023/05/19 08:52:13;;;;;;;3.35;1.67;;;;;;;19.09;44.17;102054.06;4957756;28;20038;-81
2023/05/19 08:54:52;;;;;;;2.28;1.25;;;;;;;18.57;44.15;102053.03;4993626;28;20096;-80
2023/05/19 09:00:48;;;;;;;2.13;1.27;;;;;;;18.31;44.33;102047.59;4978919;28;20146;-79
2023/05/19 09:03:51;;;;;;;7.10;2.00;;;;;;;18.55;43.33;102037.94;4966923;28;20054;-80
2023/05/19 09:06:20;;;;;;;2.70;1.92;;;;;;;18.64;44.49;102026.94;4977682;28;20136;-80
2023/05/19 09:08:55;;;;;;;2.35;1.10;;;;;;;17.75;45.48;102033.25;4958635;28;20045;-79
2023/05/19 09:11:40;;;;;;;1.67;1.10;;;;;;;18.64;43.58;102021.59;4994970;28;20046;-79
2023/05/19 09:14:26;;;;;;;5.20;1.50;;;;;;;19.20;43.73;102018.84;4990991;28;20677;-80
2023/05/19 09:17:08;;;;;;;2.00;1.10;;;;;;;18.64;42.71;102031.41;4979947;28;20146;-79
2023/05/19 09:20:09;;;;;;;2.47;1.50;;;;;;;18.63;42.08;102033.22;4988181;28;20045;-79
2023/05/19 09:22:44;;;;;;;3.58;1.95;;;;;;;18.56;42.01;102027.19;4963164;28;20046;-79
2023/05/19 09:25:21;;;;;;;2.35;1.27;;;;;;;18.40;43.45;102020.56;4961186;28;20181;-80
2023/05/19 09:27:58;;;;;;;2.22;1.30;;;;;;;18.08;44.49;102021.56;4974662;28;20041;-79
2023/05/19 09:30:29;;;;;;;1.83;1.23;;;;;;;17.94;44.71;102021.97;4991460;28;20042;-79
2023/05/19 09:32:56;;;;;;;3.40;1.15;;;;;;;17.98;45.80;102020.94;4972225;28;20165;-79
2023/05/19 09:35:23;;;;;;;8.25;1.58;;;;;;;18.17;45.50;102021.28;4976612;28;20057;-79
2023/05/19 09:37:50;;;;;;;2.58;1.13;;;;;;;18.21;43.27;102020.25;4971020;28;20096;-79
2023/05/19 09:40:17;;;;;;;3.30;1.20;;;;;;;18.12;43.57;102015.19;4983469;28;20427;-81
2023/05/19 09:42:44;;;;;;;2.03;1.17;;;;;;;18.27;45.29;102016.53;4973184;28;20048;-81
2023/05/19 09:45:12;;;;;;;3.45;1.23;;;;;;;18.08;45.64;102016.22;4992213;28;20034;-79
2023/05/19 09:47:43;;;;;;;2.58;1.58;;;;;;;18.00;44.78;102010.22;4973412;28;20046;-79
2023/05/19 09:50:12;;;;;;;2.13;1.10;;;;;;;18.18;45.13;102012.34;4987237;28;20070;-79
2023/05/19 09:52:43;;;;;;;2.42;1.30;;;;;;;17.93;43.61;102005.97;4967458;28;20085;-79
2023/05/19 09:55:11;;;;;;;2.00;1.30;;;;;;;18.05;45.33;102005.59;4964747;28;20465;-80
2023/05/19 09:57:40;;;;;;;3.30;1.33;;;;;;;18.13;45.37;102000.03;4983738;28;20455;-81
2023/05/19 10:00:17;;;;;;;2.08;1.10;;;;;;;17.92;43.22;101996.22;4951257;28;20054;-79
2023/05/19 10:02:49;;;;;;;20.88;3.17;;;;;;;17.89;45.24;101998.97;4961145;28;20504;-79
2023/05/19 10:05:18;;;;;;;2.50;1.20;;;;;;;17.83;43.62;101992.00;4972661;28;20038;-79
2023/05/19 10:07:50;;;;;;;16.63;2.78;;;;;;;18.04;43.81;101997.63;4976810;28;20048;-80
2023/05/19 10:10:37;;;;;;;1.85;1.20;;;;;;;18.45;42.65;101999.91;4958355;28;20092;-79
2023/05/19 10:13:06;;;;;;;1.95;1.20;;;;;;;18.27;41.61;101995.13;4961274;28;20054;-79
2023/05/19 10:15:39;;;;;;;1.45;1.13;;;;;;;18.50;43.08;101997.97;4971153;28;20063;-79
2023/05/19 10:18:25;;;;;;;2.08;1.20;;;;;;;18.62;42.52;102010.06;4979066;28;20606;-80
2023/05/19 10:20:53;;;;;;;11.60;1.90;;;;;;;18.53;41.25;102003.22;4959667;28;20034;-79
2023/05/19 10:23:22;;;;;;;3.50;1.95;;;;;;;18.15;42.21;101995.50;4960381;28;20065;-79
2023/05/19 10:25:54;;;;;;;2.97;1.10;;;;;;;18.30;45.01;101992.34;4973484;28;20046;-80
2023/05/19 10:28:29;;;;;;;2.92;1.33;;;;;;;18.29;42.49;101990.59;4978979;28;20474;-81
2023/05/19 10:30:57;;;;;;;2.80;1.30;;;;;;;18.36;43.23;101986.81;4985403;28;20125;-80
2023/05/19 10:34:05;;;;;;;1.27;1.08;;;;;;;18.29;44.04;101985.25;4988103;28;20552;-79
2023/05/19 10:36:44;;;;;;;2.85;1.58;;;;;;;18.73;43.75;101977.59;4965915;28;20046;-79
2023/05/19 10:39:15;;;;;;;2.03;1.20;;;;;;;18.98;42.03;101983.88;4988212;28;20066;-81
2023/05/19 10:42:07;;;;;;;2.55;1.23;;;;;;;19.22;41.65;101986.63;4987605;28;20455;-80
2023/05/19 10:44:53;;;;;;;3.83;1.42;;;;;;;18.88;41.71;101993.16;4966172;28;20037;-80
2023/05/19 10:47:23;;;;;;;1.98;1.25;;;;;;;19.02;42.09;101984.66;4990858;28;20458;-80
2023/05/19 10:49:52;;;;;;;1.50;1.20;;;;;;;19.17;41.37;101983.22;4959250;28;20043;-80
2023/05/19 10:52:20;;;;;;;1.33;1.13;;;;;;;19.40;39.77;101975.25;4983515;28;20138;-80
2023/05/19 10:54:48;;;;;;;39.78;5.20;;;;;;;19.53;40.63;101968.53;4964131;28;20069;-80
2023/05/19 10:57:18;;;;;;;10.25;1.48;;;;;;;19.90;41.02;101976.09;4955480;28;20038;-80
2023/05/19 10:59:45;;;;;;;2.50;0.95;;;;;;;20.49;40.35;101963.94;4962734;28;20054;-81
2023/05/19 11:02:35;;;;;;;4.35;1.50;;;;;;;20.93;39.83;101964.75;4965135;28;20052;-81
2023/05/19 11:05:11;;;;;;;1.70;1.17;;;;;;;21.02;38.73;101955.41;4995791;28;20407;-80
2023/05/19 11:08:06;;;;;;;2.13;1.30;;;;;;;19.93;38.39;101954.53;4975569;28;20073;-79
2023/05/19 11:10:38;;;;;;;2.47;1.10;;;;;;;19.58;39.58;101960.34;4994226;28;20095;-79
2023/05/19 11:13:05;;;;;;;1.60;1.10;;;;;;;19.46;41.26;101967.00;4979489;28;20471;-79
2023/05/19 11:15:38;;;;;;;2.72;1.30;;;;;;;19.47;40.75;101959.84;4983904;28;20066;-80
2023/05/19 11:18:05;;;;;;;2.63;1.20;;;;;;;19.27;40.22;101958.75;4961019;28;20447;-81
2023/05/19 11:20:33;;;;;;;1.60;1.23;;;;;;;19.09;39.12;101960.28;4991323;28;20121;-79
2023/05/19 11:23:05;;;;;;;1.15;0.90;;;;;;;18.93;41.60;101958.22;4975956;28;20539;-80
2023/05/19 11:25:50;;;;;;;1.52;1.10;;;;;;;18.81;40.39;101944.28;4971626;28;20039;-79
2023/05/19 11:28:18;;;;;;;1.90;1.55;;;;;;;19.21;39.67;101952.75;4979562;28;20059;-80
2023/05/19 11:30:49;;;;;;;3.42;1.50;;;;;;;19.34;39.59;101948.69;4970656;28;20039;-80
2023/05/19 11:33:19;;;;;;;6.85;1.70;;;;;;;19.56;39.79;101959.50;4990701;28;20039;-80
2023/05/19 11:35:49;;;;;;;1.92;0.98;;;;;;;19.36;38.14;101955.75;4970752;28;20046;-79
2023/05/19 11:38:17;;;;;;;2.35;1.15;;;;;;;18.85;37.60;101953.13;4956275;28;20058;-81
2023/05/19 11:40:46;;;;;;;5.88;1.50;;;;;;;18.86;39.14;101946.81;4972743;28;20486;-80
2023/05/19 11:43:17;;;;;;;2.72;1.20;;;;;;;19.02;39.36;101953.41;4960186;28;20042;-81
2023/05/19 11:46:24;;;;;;;2.45;1.10;;;;;;;18.90;37.87;101942.22;4979637;28;20053;-80
2023/05/19 11:48:54;;;;;;;2.53;1.45;;;;;;;18.83;38.50;101944.22;4966054;28;20042;-81
2023/05/19 11:51:50;;;;;;;2.60;1.13;;;;;;;18.78;39.86;101947.09;4977824;28;20050;-80
2023/05/19 11:54:31;;;;;;;1.35;0.98;;;;;;;18.85;40.53;101939.72;4979810;28;20030;-82
2023/05/19 11:57:09;;;;;;;1.45;1.27;;;;;;;18.96;40.97;101942.91;4964688;28;20051;-81
2023/05/19 11:59:42;;;;;;;2.97;1.40;;;;;;;18.72;39.31;101944.59;4973592;28;20070;-80
2023/05/19 12:02:12;;;;;;;1.77;1.20;;;;;;;19.28;40.36;101930.16;4979975;28;20046;-79
2023/05/19 12:04:39;;;;;;;2.53;1.40;;;;;;;19.55;38.30;101920.22;4993628;28;20038;-80
2023/05/19 12:07:18;;;;;;;3.60;1.80;;;;;;;19.68;40.10;101926.91;4980608;28;20050;-80
2023/05/19 12:09:49;;;;;;;2.83;1.10;;;;;;;19.62;38.99;101921.78;4980510;28;20546;-79